LDZALOWG

Guest
Details From LDZA - Zagreb
To LOWG - Graz Thalerhof
Flight Number -
Tags generated
Created
Modified
Stats Distance 79 nm / 147 km
Max Altitude 400 ft / 122 m
Waypoints 3
Social Downloads 0
Likes 0
Share VATSIM

Download

Looking for another format? Having issues loading an existing format? Contact us
Advertisement - Login to hide

Notes

Basic altitude profile: - Ascent Rate: 2500ft/min - Ascent Speed: 250kts - Cruise Altitude: 35000ft - Cruise Speed: 420kts - Descent Rate: 1500ft/min - Descent Speed: 250kts Options: - Use NATs: yes - Use PACOTS: yes - Use low airways: no - Use high airways: yes

Route

LDZA GRZ LOWG

ID Type Via Altitude Latitude Longitude Leg Dist Tot Dist Heading (true) Name
O LDZA APT - 0 ft / 0 m 45.74189˚ 16.06720˚ - 0 nm - Zagreb
GRZ VOR - 400 ft / 122 m 46.95537˚ 15.44943˚ 77 nm 77 nm 341° / 340° GRAZ VOR-DME
O LOWG APT - 0 ft / 0 m 46.99031˚ 15.43967˚ 2 nm 79 nm 349° / 349° Graz Thalerhof

Altitude Profile

Advertisement - Login to hide

LDZA

Details ICAO LDZA (ZAG)
Name Zagreb
Region Croatia
Timezone Europe/Zagreb (UTC+2.0)
Stats Elevation 353 ft / 108 m (AMSL)
Location 45.741890° 16.067200°
Runways 1
Magnetic Variation 4.018° E

METAR

LDZA 231400Z VRB04KT CAVOK 20/08 Q1020 NOSIG

Decode

TAF

TAF LDZA 231125Z 2312/2412 VRB02KT 9999 SCT030 TX22/2314Z TN10/2403Z

Decode

Departure Runways

ID Width Length Bearing (true) Bearing (mag) Surface Threshold Offset Overrun Length
05 148 ft / 45 m 10,659 ft / 3,249 m 46.69° 42.67° Asphalt 0 ft / 0 m 195 ft / 59 m
23 148 ft / 45 m 10,659 ft / 3,249 m 226.71° 222.69° Asphalt 0 ft / 0 m 195 ft / 59 m

LOWG

Details ICAO LOWG (GRZ)
Name Graz Thalerhof
Region Austria
Timezone Europe/Vienna (UTC+2.0)
Stats Elevation 1,115 ft / 340 m (AMSL)
Location 46.990308° 15.439665°
Runways 3
Magnetic Variation 3.982° E

METAR

LOWG 231350Z 33007KT 290V060 CAVOK 21/04 Q1019 NOSIG

Decode

TAF

TAF LOWG 231115Z 2312/2412 34006KT 9999 FEW060 BKN075 TX20/2314Z TN10/2403Z TEMPO 2312/2319 35010G20KT

Decode

Destination Runways

ID Width Length Bearing (true) Bearing (mag) Surface Threshold Offset Overrun Length
17C 148 ft / 45 m 9,852 ft / 3,003 m 169.37° 165.39° Asphalt 853 ft / 260 m 98 ft / 30 m
17L 98 ft / 30 m 2,102 ft / 641 m 169.41° 165.43° Grass 0 ft / 0 m 0 ft / 0 m
17R 82 ft / 25 m 2,496 ft / 761 m 169.40° 165.42° Grass 492 ft / 150 m 0 ft / 0 m
35C 148 ft / 45 m 9,852 ft / 3,003 m 349.37° 345.39° Asphalt 0 ft / 0 m 0 ft / 0 m
35L 82 ft / 25 m 2,496 ft / 761 m 349.40° 345.42° Grass 0 ft / 0 m 0 ft / 0 m
35R 98 ft / 30 m 2,102 ft / 641 m 349.41° 345.43° Grass 0 ft / 0 m 0 ft / 0 m

Approach Navaids

Runway Type Ident Frequency Range Bearing (true) Bearing (mag) Slope Elevation
35C Localiser OEG 110.90 MHz 18 nm / 33 km 349.36° 345.38° - 1,098 ft / 335 m (AMSL)
35C Glidescope OEG 110.90 MHz 10 nm / 19 km 349.37° 345.39° 3.00° 1,098 ft / 335 m (AMSL)
35C DME OEG 110.90 MHz 18 nm / 33 km - - - 1,098 ft / 335 m (AMSL)

Popular Alternatives